sensor_id;sensor_type;location;lat;lon;timestamp;temperature;humidity
10678;DHT22;5387;48.722;9.110;2023-12-04T00:00:01;-5.90;99.90
10678;DHT22;5387;48.722;9.110;2023-12-04T00:02:29;-5.90;99.90
10678;DHT22;5387;48.722;9.110;2023-12-04T00:04:56;-5.90;99.90
10678;DHT22;5387;48.722;9.110;2023-12-04T00:07:23;-6.00;99.90
10678;DHT22;5387;48.722;9.110;2023-12-04T00:09:50;-6.00;99.90
10678;DHT22;5387;48.722;9.110;2023-12-04T00:12:16;-6.00;99.90
10678;DHT22;5387;48.722;9.110;2023-12-04T00:14:43;-6.00;99.90
10678;DHT22;5387;48.722;9.110;2023-12-04T00:17:10;-6.20;99.90
10678;DHT22;5387;48.722;9.110;2023-12-04T00:19:38;-6.40;99.90
10678;DHT22;5387;48.722;9.110;2023-12-04T00:22:05;-6.50;99.90
10678;DHT22;5387;48.722;9.110;2023-12-04T00:24:32;-6.60;99.90
10678;DHT22;5387;48.722;9.110;2023-12-04T00:26:59;-6.50;99.90
10678;DHT22;5387;48.722;9.110;2023-12-04T00:29:25;-6.50;99.90
10678;DHT22;5387;48.722;9.110;2023-12-04T00:31:52;-6.50;99.90
10678;DHT22;5387;48.722;9.110;2023-12-04T00:34:19;-6.40;99.90
10678;DHT22;5387;48.722;9.110;2023-12-04T00:36:47;-6.50;99.90
10678;DHT22;5387;48.722;9.110;2023-12-04T00:39:14;-6.40;99.90
10678;DHT22;5387;48.722;9.110;2023-12-04T00:41:41;-6.50;99.90
10678;DHT22;5387;48.722;9.110;2023-12-04T00:44:08;-6.60;99.90
10678;DHT22;5387;48.722;9.110;2023-12-04T00:46:35;-6.60;99.90
10678;DHT22;5387;48.722;9.110;2023-12-04T00:49:01;-6.50;99.90
10678;DHT22;5387;48.722;9.110;2023-12-04T00:51:28;-6.50;99.90
10678;DHT22;5387;48.722;9.110;2023-12-04T00:53:56;-6.50;99.90
10678;DHT22;5387;48.722;9.110;2023-12-04T00:56:23;-6.40;99.90
10678;DHT22;5387;48.722;9.110;2023-12-04T00:58:50;-6.40;99.90
10678;DHT22;5387;48.722;9.110;2023-12-04T01:01:16;-6.40;99.90
10678;DHT22;5387;48.722;9.110;2023-12-04T01:03:43;-6.40;99.90
10678;DHT22;5387;48.722;9.110;2023-12-04T01:06:20;-6.40;99.90
10678;DHT22;5387;48.722;9.110;2023-12-04T01:08:48;-6.40;99.90
10678;DHT22;5387;48.722;9.110;2023-12-04T01:11:17;-6.30;99.90
10678;DHT22;5387;48.722;9.110;2023-12-04T01:13:45;-6.40;99.90
10678;DHT22;5387;48.722;9.110;2023-12-04T01:16:12;-6.30;99.90
10678;DHT22;5387;48.722;9.110;2023-12-04T01:18:38;-6.20;99.90
10678;DHT22;5387;48.722;9.110;2023-12-04T01:21:06;-6.20;99.90
10678;DHT22;5387;48.722;9.110;2023-12-04T01:23:34;-6.10;99.90
10678;DHT22;5387;48.722;9.110;2023-12-04T01:26:01;-6.10;99.90
10678;DHT22;5387;48.722;9.110;2023-12-04T01:28:29;-6.00;99.90
10678;DHT22;5387;48.722;9.110;2023-12-04T01:30:56;-5.90;99.90
10678;DHT22;5387;48.722;9.110;2023-12-04T01:33:23;-5.90;99.90
10678;DHT22;5387;48.722;9.110;2023-12-04T01:35:50;-5.80;99.90
10678;DHT22;5387;48.722;9.110;2023-12-04T01:38:17;-5.80;99.90
10678;DHT22;5387;48.722;9.110;2023-12-04T01:40:42;-5.80;99.90
10678;DHT22;5387;48.722;9.110;2023-12-04T01:43:09;-5.80;99.90
10678;DHT22;5387;48.722;9.110;2023-12-04T01:45:37;-5.90;99.90
10678;DHT22;5387;48.722;9.110;2023-12-04T01:48:05;-5.90;99.90
10678;DHT22;5387;48.722;9.110;2023-12-04T01:50:33;-5.80;99.90
10678;DHT22;5387;48.722;9.110;2023-12-04T01:53:01;-5.70;99.90
10678;DHT22;5387;48.722;9.110;2023-12-04T01:55:29;-5.80;99.90
10678;DHT22;5387;48.722;9.110;2023-12-04T01:57:56;-6.00;99.90
10678;DHT22;5387;48.722;9.110;2023-12-04T02:00:25;-6.00;99.90
10678;DHT22;5387;48.722;9.110;2023-12-04T02:02:53;-6.10;99.90
10678;DHT22;5387;48.722;9.110;2023-12-04T02:05:21;-6.20;99.90
10678;DHT22;5387;48.722;9.110;2023-12-04T02:07:48;-6.30;99.90
10678;DHT22;5387;48.722;9.110;2023-12-04T02:10:15;-6.40;99.90
10678;DHT22;5387;48.722;9.110;2023-12-04T02:12:42;-6.40;99.90
10678;DHT22;5387;48.722;9.110;2023-12-04T02:15:09;-6.40;99.90
10678;DHT22;5387;48.722;9.110;2023-12-04T02:17:36;-6.30;99.90
10678;DHT22;5387;48.722;9.110;2023-12-04T02:20:06;-6.20;99.90
10678;DHT22;5387;48.722;9.110;2023-12-04T02:22:34;-6.20;99.90
10678;DHT22;5387;48.722;9.110;2023-12-04T02:25:02;-6.20;99.90
10678;DHT22;5387;48.722;9.110;2023-12-04T02:27:34;-6.10;99.90
10678;DHT22;5387;48.722;9.110;2023-12-04T02:30:06;-6.20;99.90
10678;DHT22;5387;48.722;9.110;2023-12-04T02:32:38;-6.30;99.90
10678;DHT22;5387;48.722;9.110;2023-12-04T02:35:08;-6.30;99.90
10678;DHT22;5387;48.722;9.110;2023-12-04T02:37:36;-6.30;99.90
10678;DHT22;5387;48.722;9.110;2023-12-04T02:40:05;-6.20;99.90
10678;DHT22;5387;48.722;9.110;2023-12-04T02:42:32;-6.20;99.90
10678;DHT22;5387;48.722;9.110;2023-12-04T02:44:59;-6.20;99.90
10678;DHT22;5387;48.722;9.110;2023-12-04T02:47:26;-6.30;99.90
10678;DHT22;5387;48.722;9.110;2023-12-04T02:49:53;-6.10;99.90
10678;DHT22;5387;48.722;9.110;2023-12-04T02:52:19;-6.20;99.90
10678;DHT22;5387;48.722;9.110;2023-12-04T02:54:46;-6.20;99.90
10678;DHT22;5387;48.722;9.110;2023-12-04T02:57:14;-6.20;99.90
10678;DHT22;5387;48.722;9.110;2023-12-04T02:59:41;-6.20;99.90
10678;DHT22;5387;48.722;9.110;2023-12-04T03:02:08;-6.30;99.90
10678;DHT22;5387;48.722;9.110;2023-12-04T03:04:35;-6.20;99.90
10678;DHT22;5387;48.722;9.110;2023-12-04T03:07:02;-6.10;99.90
10678;DHT22;5387;48.722;9.110;2023-12-04T03:09:29;-6.10;99.90
10678;DHT22;5387;48.722;9.110;2023-12-04T03:11:56;-6.10;99.90
10678;DHT22;5387;48.722;9.110;2023-12-04T03:14:24;-6.10;99.90
10678;DHT22;5387;48.722;9.110;2023-12-04T03:16:51;-6.10;99.90
10678;DHT22;5387;48.722;9.110;2023-12-04T03:19:17;-6.10;99.90
10678;DHT22;5387;48.722;9.110;2023-12-04T03:21:44;-6.20;99.90
10678;DHT22;5387;48.722;9.110;2023-12-04T03:24:11;-6.10;99.90
10678;DHT22;5387;48.722;9.110;2023-12-04T03:26:37;-6.10;99.90
10678;DHT22;5387;48.722;9.110;2023-12-04T03:29:04;-5.90;99.90
10678;DHT22;5387;48.722;9.110;2023-12-04T03:31:32;-5.90;99.90
10678;DHT22;5387;48.722;9.110;2023-12-04T03:33:59;-5.90;99.90
10678;DHT22;5387;48.722;9.110;2023-12-04T03:36:26;-5.90;99.90
10678;DHT22;5387;48.722;9.110;2023-12-04T03:38:53;-5.80;99.90
10678;DHT22;5387;48.722;9.110;2023-12-04T03:41:20;-5.70;99.90
10678;DHT22;5387;48.722;9.110;2023-12-04T03:43:47;-5.60;99.90
10678;DHT22;5387;48.722;9.110;2023-12-04T03:46:14;-5.60;99.90
10678;DHT22;5387;48.722;9.110;2023-12-04T03:48:42;-5.70;99.90
10678;DHT22;5387;48.722;9.110;2023-12-04T03:51:09;-5.80;99.90
10678;DHT22;5387;48.722;9.110;2023-12-04T03:53:36;-5.70;99.90
10678;DHT22;5387;48.722;9.110;2023-12-04T03:56:03;-5.50;99.90
10678;DHT22;5387;48.722;9.110;2023-12-04T03:58:30;-5.60;99.90
10678;DHT22;5387;48.722;9.110;2023-12-04T04:00:58;-5.70;99.90
10678;DHT22;5387;48.722;9.110;2023-12-04T04:03:25;-5.70;99.90
10678;DHT22;5387;48.722;9.110;2023-12-04T04:05:53;-5.70;99.90
10678;DHT22;5387;48.722;9.110;2023-12-04T04:08:19;-5.70;99.90
10678;DHT22;5387;48.722;9.110;2023-12-04T04:10:46;-5.70;99.90
10678;DHT22;5387;48.722;9.110;2023-12-04T04:13:13;-5.70;99.90
10678;DHT22;5387;48.722;9.110;2023-12-04T04:15:40;-5.70;99.90
10678;DHT22;5387;48.722;9.110;2023-12-04T04:18:07;-5.60;99.90
10678;DHT22;5387;48.722;9.110;2023-12-04T04:20:34;-5.70;99.90
10678;DHT22;5387;48.722;9.110;2023-12-04T04:23:02;-5.60;99.90
10678;DHT22;5387;48.722;9.110;2023-12-04T04:25:29;-5.60;99.90
10678;DHT22;5387;48.722;9.110;2023-12-04T04:27:56;-5.60;99.90
10678;DHT22;5387;48.722;9.110;2023-12-04T04:30:22;-5.50;99.90
10678;DHT22;5387;48.722;9.110;2023-12-04T04:32:49;-5.30;99.90
10678;DHT22;5387;48.722;9.110;2023-12-04T04:35:16;-5.30;99.90
10678;DHT22;5387;48.722;9.110;2023-12-04T04:37:43;-5.20;99.90
10678;DHT22;5387;48.722;9.110;2023-12-04T04:40:11;-5.10;99.90
10678;DHT22;5387;48.722;9.110;2023-12-04T04:42:38;-5.00;99.90
10678;DHT22;5387;48.722;9.110;2023-12-04T04:45:06;-4.90;99.90
10678;DHT22;5387;48.722;9.110;2023-12-04T04:47:33;-4.70;99.90
10678;DHT22;5387;48.722;9.110;2023-12-04T04:49:59;-4.60;99.90
10678;DHT22;5387;48.722;9.110;2023-12-04T04:52:26;-4.60;99.90
10678;DHT22;5387;48.722;9.110;2023-12-04T04:54:53;-4.50;99.90
10678;DHT22;5387;48.722;9.110;2023-12-04T04:57:21;-4.40;99.90
10678;DHT22;5387;48.722;9.110;2023-12-04T04:59:48;-4.40;99.90
10678;DHT22;5387;48.722;9.110;2023-12-04T05:02:14;-4.40;99.90
10678;DHT22;5387;48.722;9.110;2023-12-04T05:04:41;-4.30;99.90
10678;DHT22;5387;48.722;9.110;2023-12-04T05:07:08;-4.20;99.90
10678;DHT22;5387;48.722;9.110;2023-12-04T05:09:35;-4.20;99.90
10678;DHT22;5387;48.722;9.110;2023-12-04T05:12:02;-4.10;99.90
10678;DHT22;5387;48.722;9.110;2023-12-04T05:14:30;-4.10;99.90
10678;DHT22;5387;48.722;9.110;2023-12-04T05:16:57;-4.00;99.90
10678;DHT22;5387;48.722;9.110;2023-12-04T05:19:24;-4.00;99.90
10678;DHT22;5387;48.722;9.110;2023-12-04T05:21:50;-4.00;99.90
10678;DHT22;5387;48.722;9.110;2023-12-04T05:24:17;-4.00;99.90
10678;DHT22;5387;48.722;9.110;2023-12-04T05:26:44;-4.10;99.90
10678;DHT22;5387;48.722;9.110;2023-12-04T05:29:11;-4.00;99.90
10678;DHT22;5387;48.722;9.110;2023-12-04T05:31:39;-4.00;99.90
10678;DHT22;5387;48.722;9.110;2023-12-04T05:34:05;-4.00;99.90
10678;DHT22;5387;48.722;9.110;2023-12-04T05:36:32;-4.00;99.90
10678;DHT22;5387;48.722;9.110;2023-12-04T05:38:59;-4.20;99.90
10678;DHT22;5387;48.722;9.110;2023-12-04T05:41:26;-4.30;99.90
10678;DHT22;5387;48.722;9.110;2023-12-04T05:43:52;-4.20;99.90
10678;DHT22;5387;48.722;9.110;2023-12-04T05:46:19;-4.30;99.90
10678;DHT22;5387;48.722;9.110;2023-12-04T05:48:47;-4.40;99.90
10678;DHT22;5387;48.722;9.110;2023-12-04T05:51:14;-4.50;99.90
10678;DHT22;5387;48.722;9.110;2023-12-04T05:53:41;-4.50;99.90
10678;DHT22;5387;48.722;9.110;2023-12-04T05:56:09;-4.70;99.90
10678;DHT22;5387;48.722;9.110;2023-12-04T05:58:36;-4.60;99.90
10678;DHT22;5387;48.722;9.110;2023-12-04T06:01:03;-4.70;99.90
10678;DHT22;5387;48.722;9.110;2023-12-04T06:03:31;-4.70;99.90
10678;DHT22;5387;48.722;9.110;2023-12-04T06:05:59;-4.70;99.90
10678;DHT22;5387;48.722;9.110;2023-12-04T06:08:26;-4.40;99.90
10678;DHT22;5387;48.722;9.110;2023-12-04T06:10:53;-4.30;99.90
10678;DHT22;5387;48.722;9.110;2023-12-04T06:13:20;-4.30;99.90
10678;DHT22;5387;48.722;9.110;2023-12-04T06:15:46;-4.20;99.90
10678;DHT22;5387;48.722;9.110;2023-12-04T06:18:13;-4.40;99.90
10678;DHT22;5387;48.722;9.110;2023-12-04T06:20:40;-4.40;99.90
10678;DHT22;5387;48.722;9.110;2023-12-04T06:23:09;-4.50;99.90
10678;DHT22;5387;48.722;9.110;2023-12-04T06:25:36;-4.60;99.90
10678;DHT22;5387;48.722;9.110;2023-12-04T06:28:04;-4.50;99.90
10678;DHT22;5387;48.722;9.110;2023-12-04T06:30:31;-4.40;99.90
10678;DHT22;5387;48.722;9.110;2023-12-04T06:32:58;-4.30;99.90
10678;DHT22;5387;48.722;9.110;2023-12-04T06:35:26;-4.40;99.90
10678;DHT22;5387;48.722;9.110;2023-12-04T06:37:54;-4.60;99.90
10678;DHT22;5387;48.722;9.110;2023-12-04T06:40:23;-4.50;99.90
10678;DHT22;5387;48.722;9.110;2023-12-04T06:42:50;-4.50;99.90
10678;DHT22;5387;48.722;9.110;2023-12-04T06:45:18;-4.30;99.90
10678;DHT22;5387;48.722;9.110;2023-12-04T06:47:46;-4.10;99.90
10678;DHT22;5387;48.722;9.110;2023-12-04T06:50:15;-4.00;99.90
10678;DHT22;5387;48.722;9.110;2023-12-04T06:52:42;-4.00;99.90
10678;DHT22;5387;48.722;9.110;2023-12-04T06:55:09;-4.00;99.90
10678;DHT22;5387;48.722;9.110;2023-12-04T06:57:37;-3.90;99.90
10678;DHT22;5387;48.722;9.110;2023-12-04T07:00:05;-3.80;99.90
10678;DHT22;5387;48.722;9.110;2023-12-04T07:02:33;-3.80;99.90
10678;DHT22;5387;48.722;9.110;2023-12-04T07:05:00;-3.80;99.90
10678;DHT22;5387;48.722;9.110;2023-12-04T07:07:28;-3.70;99.90
10678;DHT22;5387;48.722;9.110;2023-12-04T07:09:55;-3.70;99.90
10678;DHT22;5387;48.722;9.110;2023-12-04T07:12:22;-3.80;99.90
10678;DHT22;5387;48.722;9.110;2023-12-04T07:14:50;-3.80;99.90
10678;DHT22;5387;48.722;9.110;2023-12-04T07:17:17;-3.80;99.90
10678;DHT22;5387;48.722;9.110;2023-12-04T07:19:43;-3.70;99.90
10678;DHT22;5387;48.722;9.110;2023-12-04T07:22:10;-3.70;99.90
10678;DHT22;5387;48.722;9.110;2023-12-04T07:24:37;-3.80;99.90
10678;DHT22;5387;48.722;9.110;2023-12-04T07:27:04;-3.80;99.90
10678;DHT22;5387;48.722;9.110;2023-12-04T07:29:31;-3.80;99.90
10678;DHT22;5387;48.722;9.110;2023-12-04T07:31:59;-3.90;99.90
10678;DHT22;5387;48.722;9.110;2023-12-04T07:34:25;-3.90;99.90
10678;DHT22;5387;48.722;9.110;2023-12-04T07:36:53;-3.80;99.90
10678;DHT22;5387;48.722;9.110;2023-12-04T07:39:20;-3.70;99.90
10678;DHT22;5387;48.722;9.110;2023-12-04T07:41:47;-3.60;99.90
10678;DHT22;5387;48.722;9.110;2023-12-04T07:44:14;-3.40;99.90
10678;DHT22;5387;48.722;9.110;2023-12-04T07:46:41;-3.50;99.90
10678;DHT22;5387;48.722;9.110;2023-12-04T07:49:09;-3.40;99.90
10678;DHT22;5387;48.722;9.110;2023-12-04T07:51:35;-3.40;99.90
10678;DHT22;5387;48.722;9.110;2023-12-04T07:54:02;-3.30;99.90
10678;DHT22;5387;48.722;9.110;2023-12-04T07:56:29;-3.10;99.90
10678;DHT22;5387;48.722;9.110;2023-12-04T07:58:56;-3.10;99.90
10678;DHT22;5387;48.722;9.110;2023-12-04T08:01:23;-3.00;99.90
10678;DHT22;5387;48.722;9.110;2023-12-04T08:03:50;-3.00;99.90
10678;DHT22;5387;48.722;9.110;2023-12-04T08:06:18;-3.00;99.90
10678;DHT22;5387;48.722;9.110;2023-12-04T08:08:45;-3.00;99.90
10678;DHT22;5387;48.722;9.110;2023-12-04T08:11:12;-3.00;99.90
10678;DHT22;5387;48.722;9.110;2023-12-04T08:13:39;-3.10;99.90
10678;DHT22;5387;48.722;9.110;2023-12-04T08:16:13;-3.20;99.90
10678;DHT22;5387;48.722;9.110;2023-12-04T08:18:40;-3.20;99.90
10678;DHT22;5387;48.722;9.110;2023-12-04T08:21:07;-3.10;99.90
10678;DHT22;5387;48.722;9.110;2023-12-04T08:23:36;-3.10;99.90
10678;DHT22;5387;48.722;9.110;2023-12-04T08:26:03;-3.10;99.90
10678;DHT22;5387;48.722;9.110;2023-12-04T08:28:30;-3.10;99.90
10678;DHT22;5387;48.722;9.110;2023-12-04T08:30:57;-3.10;99.90
10678;DHT22;5387;48.722;9.110;2023-12-04T08:33:24;-3.00;99.90
10678;DHT22;5387;48.722;9.110;2023-12-04T08:35:51;-3.00;99.90
10678;DHT22;5387;48.722;9.110;2023-12-04T08:38:17;-3.00;99.90
10678;DHT22;5387;48.722;9.110;2023-12-04T08:40:45;-3.00;99.90
10678;DHT22;5387;48.722;9.110;2023-12-04T08:43:14;-2.90;99.90
10678;DHT22;5387;48.722;9.110;2023-12-04T08:45:41;-2.70;99.90
10678;DHT22;5387;48.722;9.110;2023-12-04T08:48:08;-2.50;99.90
10678;DHT22;5387;48.722;9.110;2023-12-04T08:50:35;-2.60;99.90
10678;DHT22;5387;48.722;9.110;2023-12-04T08:53:03;-2.30;99.90
10678;DHT22;5387;48.722;9.110;2023-12-04T08:55:30;-2.10;99.90
10678;DHT22;5387;48.722;9.110;2023-12-04T08:57:58;-1.90;99.90
10678;DHT22;5387;48.722;9.110;2023-12-04T09:00:25;-1.80;99.90
10678;DHT22;5387;48.722;9.110;2023-12-04T09:02:52;-1.80;99.90
10678;DHT22;5387;48.722;9.110;2023-12-04T09:05:19;-2.20;99.90
10678;DHT22;5387;48.722;9.110;2023-12-04T09:07:46;-2.20;99.90
10678;DHT22;5387;48.722;9.110;2023-12-04T09:10:13;-2.40;99.90
10678;DHT22;5387;48.722;9.110;2023-12-04T09:12:40;-2.20;99.90
10678;DHT22;5387;48.722;9.110;2023-12-04T09:15:08;-1.90;99.90
10678;DHT22;5387;48.722;9.110;2023-12-04T09:17:35;-2.10;99.90
10678;DHT22;5387;48.722;9.110;2023-12-04T09:20:02;-2.10;99.90
10678;DHT22;5387;48.722;9.110;2023-12-04T09:22:31;-2.10;99.90
10678;DHT22;5387;48.722;9.110;2023-12-04T09:24:58;-2.20;99.90
10678;DHT22;5387;48.722;9.110;2023-12-04T09:27:24;-2.20;99.90
10678;DHT22;5387;48.722;9.110;2023-12-04T09:29:51;-2.20;99.90
10678;DHT22;5387;48.722;9.110;2023-12-04T09:32:19;-2.10;99.90
10678;DHT22;5387;48.722;9.110;2023-12-04T09:34:46;-2.00;99.90
10678;DHT22;5387;48.722;9.110;2023-12-04T09:37:13;-2.00;99.90
10678;DHT22;5387;48.722;9.110;2023-12-04T09:39:40;-1.90;99.90
10678;DHT22;5387;48.722;9.110;2023-12-04T09:42:07;-1.80;99.90
10678;DHT22;5387;48.722;9.110;2023-12-04T09:44:34;-2.00;99.90
10678;DHT22;5387;48.722;9.110;2023-12-04T09:47:03;-1.70;99.90
10678;DHT22;5387;48.722;9.110;2023-12-04T09:49:32;-1.70;99.90
10678;DHT22;5387;48.722;9.110;2023-12-04T09:52:01;-1.70;99.90
10678;DHT22;5387;48.722;9.110;2023-12-04T09:54:29;-1.70;99.90
10678;DHT22;5387;48.722;9.110;2023-12-04T09:56:57;-1.70;99.90
10678;DHT22;5387;48.722;9.110;2023-12-04T09:59:24;-1.70;99.90
10678;DHT22;5387;48.722;9.110;2023-12-04T10:01:52;-1.50;99.90
10678;DHT22;5387;48.722;9.110;2023-12-04T10:04:19;-1.30;99.90
10678;DHT22;5387;48.722;9.110;2023-12-04T10:06:50;-1.20;99.90
10678;DHT22;5387;48.722;9.110;2023-12-04T10:09:17;-1.10;99.90
10678;DHT22;5387;48.722;9.110;2023-12-04T10:11:44;-1.10;99.90
10678;DHT22;5387;48.722;9.110;2023-12-04T10:14:15;-0.90;99.90
10678;DHT22;5387;48.722;9.110;2023-12-04T10:16:43;-1.10;99.90
10678;DHT22;5387;48.722;9.110;2023-12-04T10:19:18;-1.10;99.90
10678;DHT22;5387;48.722;9.110;2023-12-04T10:21:46;-1.30;99.90
10678;DHT22;5387;48.722;9.110;2023-12-04T10:24:27;-1.50;99.90
10678;DHT22;5387;48.722;9.110;2023-12-04T10:26:55;-1.60;99.90
10678;DHT22;5387;48.722;9.110;2023-12-04T10:29:23;-1.50;99.90
10678;DHT22;5387;48.722;9.110;2023-12-04T10:31:50;-1.50;99.90
10678;DHT22;5387;48.722;9.110;2023-12-04T10:34:19;-1.50;99.90
10678;DHT22;5387;48.722;9.110;2023-12-04T10:36:47;-1.30;99.90
10678;DHT22;5387;48.722;9.110;2023-12-04T10:39:15;-1.20;99.90
10678;DHT22;5387;48.722;9.110;2023-12-04T10:41:43;-1.20;99.90
10678;DHT22;5387;48.722;9.110;2023-12-04T10:44:16;-1.00;99.90
10678;DHT22;5387;48.722;9.110;2023-12-04T10:46:46;-0.90;99.90
10678;DHT22;5387;48.722;9.110;2023-12-04T10:49:14;-0.80;99.90
10678;DHT22;5387;48.722;9.110;2023-12-04T10:51:44;-0.60;99.90
10678;DHT22;5387;48.722;9.110;2023-12-04T10:54:11;-0.60;99.90
10678;DHT22;5387;48.722;9.110;2023-12-04T10:56:41;-0.60;99.90
10678;DHT22;5387;48.722;9.110;2023-12-04T10:59:11;-0.60;99.90
10678;DHT22;5387;48.722;9.110;2023-12-04T11:01:38;-0.40;99.90
10678;DHT22;5387;48.722;9.110;2023-12-04T11:04:11;-0.20;99.90
10678;DHT22;5387;48.722;9.110;2023-12-04T11:06:41;0.00;99.90
10678;DHT22;5387;48.722;9.110;2023-12-04T11:09:09;0.10;99.90
10678;DHT22;5387;48.722;9.110;2023-12-04T11:11:43;0.00;99.90
10678;DHT22;5387;48.722;9.110;2023-12-04T11:14:13;0.20;99.90
10678;DHT22;5387;48.722;9.110;2023-12-04T11:16:47;0.40;99.90
10678;DHT22;5387;48.722;9.110;2023-12-04T11:19:18;0.40;99.90
10678;DHT22;5387;48.722;9.110;2023-12-04T11:21:47;0.20;99.90
10678;DHT22;5387;48.722;9.110;2023-12-04T11:24:17;0.10;99.90
10678;DHT22;5387;48.722;9.110;2023-12-04T11:26:46;0.00;99.90
10678;DHT22;5387;48.722;9.110;2023-12-04T11:29:14;0.10;99.90
10678;DHT22;5387;48.722;9.110;2023-12-04T11:31:42;0.10;99.90
10678;DHT22;5387;48.722;9.110;2023-12-04T11:34:09;0.10;99.90
10678;DHT22;5387;48.722;9.110;2023-12-04T11:36:36;-0.10;99.90
10678;DHT22;5387;48.722;9.110;2023-12-04T11:39:03;-0.20;99.90
10678;DHT22;5387;48.722;9.110;2023-12-04T11:41:31;-0.10;99.90
10678;DHT22;5387;48.722;9.110;2023-12-04T11:43:59;0.20;99.90
10678;DHT22;5387;48.722;9.110;2023-12-04T11:46:27;0.60;99.90
10678;DHT22;5387;48.722;9.110;2023-12-04T11:48:57;0.50;99.90
10678;DHT22;5387;48.722;9.110;2023-12-04T11:51:46;0.70;99.90
10678;DHT22;5387;48.722;9.110;2023-12-04T11:54:18;1.00;99.90
10678;DHT22;5387;48.722;9.110;2023-12-04T11:56:57;1.20;99.90
10678;DHT22;5387;48.722;9.110;2023-12-04T11:59:26;1.20;99.90
10678;DHT22;5387;48.722;9.110;2023-12-04T12:01:54;1.40;99.90
10678;DHT22;5387;48.722;9.110;2023-12-04T12:04:21;1.10;99.90
10678;DHT22;5387;48.722;9.110;2023-12-04T12:06:48;1.40;99.90
10678;DHT22;5387;48.722;9.110;2023-12-04T12:09:16;1.60;99.90
10678;DHT22;5387;48.722;9.110;2023-12-04T12:11:43;1.70;99.90
10678;DHT22;5387;48.722;9.110;2023-12-04T12:14:10;1.80;99.90
10678;DHT22;5387;48.722;9.110;2023-12-04T12:16:39;1.40;99.90
10678;DHT22;5387;48.722;9.110;2023-12-04T12:19:05;1.50;99.90
10678;DHT22;5387;48.722;9.110;2023-12-04T12:21:32;1.50;99.90
10678;DHT22;5387;48.722;9.110;2023-12-04T12:24:00;1.70;99.90
10678;DHT22;5387;48.722;9.110;2023-12-04T12:26:28;1.90;99.90
10678;DHT22;5387;48.722;9.110;2023-12-04T12:28:55;2.10;99.90
10678;DHT22;5387;48.722;9.110;2023-12-04T12:31:22;2.10;99.90
10678;DHT22;5387;48.722;9.110;2023-12-04T12:33:51;1.70;99.90
10678;DHT22;5387;48.722;9.110;2023-12-04T12:36:18;1.60;99.90
10678;DHT22;5387;48.722;9.110;2023-12-04T12:38:45;1.70;99.90
10678;DHT22;5387;48.722;9.110;2023-12-04T12:41:15;1.60;99.90
10678;DHT22;5387;48.722;9.110;2023-12-04T12:43:42;1.60;99.90
10678;DHT22;5387;48.722;9.110;2023-12-04T12:46:10;1.60;99.90
10678;DHT22;5387;48.722;9.110;2023-12-04T12:48:36;1.50;99.90
10678;DHT22;5387;48.722;9.110;2023-12-04T12:51:06;1.30;99.90
10678;DHT22;5387;48.722;9.110;2023-12-04T12:53:33;1.20;99.90
10678;DHT22;5387;48.722;9.110;2023-12-04T12:56:00;1.00;99.90
10678;DHT22;5387;48.722;9.110;2023-12-04T12:58:27;1.00;99.90
10678;DHT22;5387;48.722;9.110;2023-12-04T13:00:55;1.00;99.90
10678;DHT22;5387;48.722;9.110;2023-12-04T13:03:22;1.10;99.90
10678;DHT22;5387;48.722;9.110;2023-12-04T13:05:49;1.10;99.90
10678;DHT22;5387;48.722;9.110;2023-12-04T13:08:17;1.10;99.90
10678;DHT22;5387;48.722;9.110;2023-12-04T13:10:44;1.10;99.90
10678;DHT22;5387;48.722;9.110;2023-12-04T13:13:11;1.00;99.90
10678;DHT22;5387;48.722;9.110;2023-12-04T13:15:38;1.10;99.90
10678;DHT22;5387;48.722;9.110;2023-12-04T13:18:06;1.00;99.90
10678;DHT22;5387;48.722;9.110;2023-12-04T13:20:33;1.00;99.90
10678;DHT22;5387;48.722;9.110;2023-12-04T13:23:00;1.00;99.90
10678;DHT22;5387;48.722;9.110;2023-12-04T13:25:29;1.30;99.90
10678;DHT22;5387;48.722;9.110;2023-12-04T13:27:55;1.40;99.90
10678;DHT22;5387;48.722;9.110;2023-12-04T13:30:22;1.30;99.90
10678;DHT22;5387;48.722;9.110;2023-12-04T13:32:49;1.50;99.90
10678;DHT22;5387;48.722;9.110;2023-12-04T13:35:17;1.20;99.90
10678;DHT22;5387;48.722;9.110;2023-12-04T13:37:44;1.20;99.90
10678;DHT22;5387;48.722;9.110;2023-12-04T13:40:12;1.10;99.90
10678;DHT22;5387;48.722;9.110;2023-12-04T13:42:42;0.90;99.90
10678;DHT22;5387;48.722;9.110;2023-12-04T13:45:27;0.70;99.90
10678;DHT22;5387;48.722;9.110;2023-12-04T13:47:54;0.70;99.90
10678;DHT22;5387;48.722;9.110;2023-12-04T13:50:21;0.90;99.90
10678;DHT22;5387;48.722;9.110;2023-12-04T13:52:47;0.80;99.90
10678;DHT22;5387;48.722;9.110;2023-12-04T13:55:20;0.80;99.90
10678;DHT22;5387;48.722;9.110;2023-12-04T13:58:03;0.80;99.90
10678;DHT22;5387;48.722;9.110;2023-12-04T14:00:36;0.70;99.90
10678;DHT22;5387;48.722;9.110;2023-12-04T14:03:03;0.60;99.90
10678;DHT22;5387;48.722;9.110;2023-12-04T14:05:30;0.70;99.90
10678;DHT22;5387;48.722;9.110;2023-12-04T14:07:57;0.70;99.90
10678;DHT22;5387;48.722;9.110;2023-12-04T14:10:24;0.60;99.90
10678;DHT22;5387;48.722;9.110;2023-12-04T14:12:52;0.60;99.90
10678;DHT22;5387;48.722;9.110;2023-12-04T14:15:20;0.50;99.90
10678;DHT22;5387;48.722;9.110;2023-12-04T14:17:47;0.40;99.90
10678;DHT22;5387;48.722;9.110;2023-12-04T14:20:14;0.40;99.90
10678;DHT22;5387;48.722;9.110;2023-12-04T14:22:44;0.20;99.90
10678;DHT22;5387;48.722;9.110;2023-12-04T14:25:11;0.20;99.90
10678;DHT22;5387;48.722;9.110;2023-12-04T14:27:38;0.40;99.90
10678;DHT22;5387;48.722;9.110;2023-12-04T14:30:07;0.30;99.90
10678;DHT22;5387;48.722;9.110;2023-12-04T14:32:36;0.20;99.90
10678;DHT22;5387;48.722;9.110;2023-12-04T14:35:04;0.20;99.90
10678;DHT22;5387;48.722;9.110;2023-12-04T14:37:32;0.10;99.90
10678;DHT22;5387;48.722;9.110;2023-12-04T14:40:00;0.20;99.90
10678;DHT22;5387;48.722;9.110;2023-12-04T14:42:27;0.20;99.90
10678;DHT22;5387;48.722;9.110;2023-12-04T14:44:54;0.30;99.90
10678;DHT22;5387;48.722;9.110;2023-12-04T14:47:20;0.30;99.90
10678;DHT22;5387;48.722;9.110;2023-12-04T14:49:49;0.30;99.90
10678;DHT22;5387;48.722;9.110;2023-12-04T14:52:20;0.40;99.90
10678;DHT22;5387;48.722;9.110;2023-12-04T14:54:47;0.20;99.90
10678;DHT22;5387;48.722;9.110;2023-12-04T14:57:38;0.20;99.90
10678;DHT22;5387;48.722;9.110;2023-12-04T15:00:24;0.30;99.90
10678;DHT22;5387;48.722;9.110;2023-12-04T15:03:33;0.50;99.90
10678;DHT22;5387;48.722;9.110;2023-12-04T15:06:46;0.30;99.90
10678;DHT22;5387;48.722;9.110;2023-12-04T15:09:41;0.30;99.90
10678;DHT22;5387;48.722;9.110;2023-12-04T15:12:36;0.30;99.90
10678;DHT22;5387;48.722;9.110;2023-12-04T15:15:26;0.30;99.90
10678;DHT22;5387;48.722;9.110;2023-12-04T15:18:05;0.40;99.90
10678;DHT22;5387;48.722;9.110;2023-12-04T15:20:45;0.30;99.90
10678;DHT22;5387;48.722;9.110;2023-12-04T15:23:14;0.40;99.90
10678;DHT22;5387;48.722;9.110;2023-12-04T15:25:40;0.40;99.90
10678;DHT22;5387;48.722;9.110;2023-12-04T15:28:07;0.40;99.90
10678;DHT22;5387;48.722;9.110;2023-12-04T15:30:33;0.40;99.90
10678;DHT22;5387;48.722;9.110;2023-12-04T15:33:00;0.50;99.90
10678;DHT22;5387;48.722;9.110;2023-12-04T15:35:25;0.40;99.90
10678;DHT22;5387;48.722;9.110;2023-12-04T15:37:52;0.30;99.90
10678;DHT22;5387;48.722;9.110;2023-12-04T15:40:19;0.20;99.90
10678;DHT22;5387;48.722;9.110;2023-12-04T15:42:46;0.30;99.90
10678;DHT22;5387;48.722;9.110;2023-12-04T15:45:13;0.40;99.90
10678;DHT22;5387;48.722;9.110;2023-12-04T15:47:39;0.50;99.90
10678;DHT22;5387;48.722;9.110;2023-12-04T15:50:06;0.20;99.90
10678;DHT22;5387;48.722;9.110;2023-12-04T15:52:34;0.30;99.90
10678;DHT22;5387;48.722;9.110;2023-12-04T15:55:04;0.30;99.90